Time;durP1;ratioP1;P1;durP2;ratioP2;P2;SDS_P1;SDS_P2;PMS_P1;PMS_P2;Temp;Humidity;BMP_temperature;BMP_pressure;BME280_temperature;BME280_humidity;BME280_pressure;Samples;Min_cycle;Max_cycle;Signal;HPM_P1;HPM_P2
2022/05/06 00:01:46;;;;;;;29.98;16.13;;;6.40;99.90;;;;;;5093854;28;20123;-44
2022/05/06 00:04:12;;;;;;;24.08;14.57;;;6.50;99.90;;;;;;5094276;28;20082;-43
2022/05/06 00:06:38;;;;;;;21.77;14.77;;;6.30;99.90;;;;;;5095530;28;20036;-43
2022/05/06 00:09:05;;;;;;;26.08;14.38;;;6.30;99.90;;;;;;5094638;27;20121;-46
2022/05/06 00:11:31;;;;;;;20.90;13.32;;;6.40;99.90;;;;;;5093250;28;20071;-44
2022/05/06 00:13:57;;;;;;;17.95;13.38;;;6.40;99.90;;;;;;5096958;28;20108;-45
2022/05/06 00:16:24;;;;;;;22.40;14.52;;;6.20;99.90;;;;;;5094443;28;20040;-42
2022/05/06 00:18:50;;;;;;;26.73;16.42;;;6.20;99.90;;;;;;5094531;28;20035;-43
2022/05/06 00:21:17;;;;;;;20.40;13.68;;;6.30;99.90;;;;;;5095211;28;20067;-42
2022/05/06 00:23:43;;;;;;;23.88;15.20;;;6.20;99.90;;;;;;5095085;28;20511;-43
2022/05/06 00:26:09;;;;;;;28.05;16.83;;;6.20;99.90;;;;;;5095787;28;20028;-41
2022/05/06 00:28:36;;;;;;;18.73;13.30;;;6.20;99.90;;;;;;5094713;28;20051;-42
2022/05/06 00:31:03;;;;;;;20.83;12.90;;;6.10;99.90;;;;;;5093608;28;20674;-42
2022/05/06 00:33:30;;;;;;;22.90;14.40;;;6.20;99.90;;;;;;5093445;28;20054;-41
2022/05/06 00:36:01;;;;;;;28.63;16.63;;;6.20;99.90;;;;;;5094534;28;20479;-40
2022/05/06 00:38:29;;;;;;;26.20;16.63;;;6.20;99.90;;;;;;5092725;28;20074;-40
2022/05/06 00:40:55;;;;;;;26.98;17.38;;;6.00;99.90;;;;;;5094267;28;20031;-40
2022/05/06 00:43:21;;;;;;;27.33;15.85;;;6.10;99.90;;;;;;5093878;28;20112;-43
2022/05/06 00:45:55;;;;;;;21.42;14.10;;;5.90;99.90;;;;;;5092443;28;20659;-40
2022/05/06 00:48:27;;;;;;;21.77;13.45;;;6.00;99.90;;;;;;5092383;28;20480;-41
2022/05/06 00:50:54;;;;;;;18.67;12.65;;;5.80;99.90;;;;;;5093958;28;20055;-44
2022/05/06 00:53:20;;;;;;;29.75;17.52;;;;;;;;;;5093158;28;20070;-44
2022/05/06 00:55:47;;;;;;;26.15;16.00;;;5.90;99.90;;;;;;5091718;28;20032;-42
2022/05/06 00:58:14;;;;;;;30.00;16.83;;;5.70;99.90;;;;;;5093809;28;20047;-44
2022/05/06 01:00:40;;;;;;;23.42;13.88;;;5.70;99.90;;;;;;5093596;28;20484;-44
2022/05/06 01:03:07;;;;;;;24.98;12.95;;;5.90;99.90;;;;;;5093066;28;20104;-42
2022/05/06 01:05:34;;;;;;;20.48;12.00;;;5.60;99.90;;;;;;5094273;28;20047;-44
2022/05/06 01:08:01;;;;;;;17.23;11.48;;;5.50;99.90;;;;;;5093774;28;20095;-48
2022/05/06 01:10:27;;;;;;;19.80;11.48;;;;;;;;;;5093316;28;20507;-46
2022/05/06 01:12:55;;;;;;;15.75;11.48;;;5.40;99.90;;;;;;5093907;28;20040;-44
2022/05/06 01:15:23;;;;;;;19.02;13.35;;;5.60;99.90;;;;;;5092870;28;20512;-47
2022/05/06 01:17:50;;;;;;;16.15;11.95;;;5.40;99.90;;;;;;5093625;28;20130;-43
2022/05/06 01:20:18;;;;;;;22.10;12.82;;;5.30;99.90;;;;;;5095175;28;20047;-48
2022/05/06 01:22:48;;;;;;;16.45;11.57;;;5.30;99.90;;;;;;5094363;28;20048;-44
2022/05/06 01:25:15;;;;;;;16.73;11.82;;;5.20;99.90;;;;;;5094440;28;20042;-45
2022/05/06 01:28:00;;;;;;;18.02;11.82;;;5.40;99.90;;;;;;5094110;28;20058;-45
2022/05/06 01:30:40;;;;;;;20.15;12.90;;;5.20;99.90;;;;;;5092516;28;20036;-46
2022/05/06 01:33:08;;;;;;;23.77;13.55;;;5.30;99.90;;;;;;5094044;28;20127;-46
2022/05/06 01:35:50;;;;;;;25.52;16.02;;;5.30;99.90;;;;;;5094575;28;20059;-44
2022/05/06 01:38:26;;;;;;;29.50;18.63;;;5.30;99.90;;;;;;5093621;28;20051;-44
2022/05/06 01:40:56;;;;;;;30.95;19.20;;;5.20;99.90;;;;;;5092015;28;20043;-43
2022/05/06 01:43:24;;;;;;;25.63;17.40;;;5.40;99.90;;;;;;5092281;28;20044;-43
2022/05/06 01:45:52;;;;;;;22.20;15.65;;;5.30;99.90;;;;;;5092006;28;20066;-44
2022/05/06 01:48:20;;;;;;;17.25;13.40;;;5.20;99.90;;;;;;5092321;28;20048;-44
2022/05/06 01:50:48;;;;;;;22.10;15.43;;;5.20;99.90;;;;;;5091801;28;20044;-43
2022/05/06 01:53:16;;;;;;;15.68;12.40;;;5.10;99.90;;;;;;5092131;28;20042;-46
2022/05/06 01:55:43;;;;;;;26.20;16.08;;;;;;;;;;5091798;28;20445;-47
2022/05/06 01:58:11;;;;;;;84.20;19.38;;;5.10;99.90;;;;;;5092196;28;20514;-43
2022/05/06 02:00:37;;;;;;;77.38;18.73;;;;;;;;;;5092342;28;20040;-44
2022/05/06 02:03:05;;;;;;;227.20;23.63;;;5.00;99.90;;;;;;5092353;28;21120;-44
2022/05/06 02:05:31;;;;;;;174.88;21.90;;;;;;;;;;5091855;28;20092;-45
2022/05/06 02:07:57;;;;;;;239.18;25.80;;;;;;;;;;5093781;28;20074;-44
2022/05/06 02:10:25;;;;;;;42.45;18.83;;;5.10;99.90;;;;;;5096056;28;20824;-43
2022/05/06 02:12:51;;;;;;;92.57;21.92;;;;;;;;;;5097921;28;20054;-44
2022/05/06 02:15:19;;;;;;;122.38;26.15;;;5.10;99.90;;;;;;5096718;28;21117;-43
2022/05/06 02:17:45;;;;;;;97.53;26.70;;;;;;;;;;5094718;28;20046;-42
2022/05/06 02:20:13;;;;;;;322.67;36.53;;;5.10;99.90;;;;;;5095480;28;20043;-43
2022/05/06 02:22:42;;;;;;;79.28;30.77;;;5.30;99.90;;;;;;5095938;28;20066;-43
2022/05/06 02:25:09;;;;;;;126.18;36.28;;;5.50;99.90;;;;;;5094010;28;20035;-43
2022/05/06 02:27:38;;;;;;;385.80;39.28;;;5.60;99.90;;;;;;5097420;28;20059;-42
2022/05/06 02:35:43;;;;;;;547.30;48.05;;;5.70;99.90;;;;;;5094885;28;20127;-43
2022/05/06 02:38:10;;;;;;;269.55;39.33;;;5.90;99.90;;;;;;5097346;28;20043;-45
2022/05/06 02:40:37;;;;;;;363.05;43.90;;;6.10;99.90;;;;;;5096745;28;20064;-47
2022/05/06 02:43:05;;;;;;;506.90;52.83;;;6.00;99.90;;;;;;5096763;28;20044;-45
2022/05/06 02:45:33;;;;;;;752.72;64.10;;;6.00;99.90;;;;;;5096600;28;20035;-45
2022/05/06 02:48:03;;;;;;;385.07;41.77;;;6.00;99.90;;;;;;5095515;28;20763;-45
2022/05/06 02:50:29;;;;;;;547.28;52.17;;;;;;;;;;5097356;28;20055;-43
2022/05/06 02:52:54;;;;;;;669.40;62.55;;;6.30;99.90;;;;;;5097033;28;20035;-44
2022/05/06 02:55:21;;;;;;;855.20;78.47;;;6.20;99.90;;;;;;5096222;27;20039;-43
2022/05/06 02:57:47;;;;;;;571.42;59.05;;;6.20;99.90;;;;;;5088953;28;20056;-43
2022/05/06 03:00:13;;;;;;;673.38;65.30;;;6.50;99.90;;;;;;5095733;28;20052;-44
2022/05/06 03:02:40;;;;;;;549.53;60.38;;;6.60;99.90;;;;;;5094630;28;20067;-44
2022/05/06 03:05:07;;;;;;;496.35;62.05;;;6.50;99.90;;;;;;5094205;28;20868;-44
2022/05/06 03:07:32;;;;;;;513.80;53.58;;;6.60;99.90;;;;;;5094847;28;20104;-45
2022/05/06 03:09:58;;;;;;;377.83;51.95;;;;;;;;;;5094945;28;20382;-44
2022/05/06 03:12:29;;;;;;;477.45;62.38;;;6.80;99.90;;;;;;5094044;28;20138;-47
2022/05/06 03:14:55;;;;;;;704.75;81.47;;;6.90;99.90;;;;;;5094162;28;20767;-45
2022/05/06 03:17:21;;;;;;;768.47;83.75;;;6.90;99.90;;;;;;5094856;28;20047;-45
2022/05/06 03:19:47;;;;;;;265.35;50.42;;;7.10;99.90;;;;;;5093405;28;20054;-44
2022/05/06 03:22:15;;;;;;;384.88;53.10;;;7.10;99.90;;;;;;5093664;28;20126;-45
2022/05/06 03:24:44;;;;;;;383.55;53.58;;;7.10;99.90;;;;;;5094190;28;20039;-47
2022/05/06 03:27:59;;;;;;;306.92;48.22;;;7.10;99.90;;;;;;5095462;28;20039;-45
2022/05/06 03:29:55;;;;;;;556.05;65.72;;;7.20;99.90;;;;;;5092779;28;20892;-43
2022/05/06 03:32:22;;;;;;;598.22;69.78;;;7.30;99.90;;;;;;5094754;28;20032;-42
2022/05/06 03:34:49;;;;;;;357.98;53.78;;;7.30;99.90;;;;;;5093499;28;20306;-46
2022/05/06 03:37:15;;;;;;;364.80;55.50;;;7.40;99.90;;;;;;5095728;28;20527;-43
2022/05/06 03:39:41;;;;;;;419.92;57.78;;;7.50;99.90;;;;;;5092469;28;20043;-44
2022/05/06 03:42:07;;;;;;;500.77;70.47;;;7.50;99.90;;;;;;5095064;28;20513;-43
2022/05/06 03:44:34;;;;;;;568.35;77.95;;;7.40;99.90;;;;;;5094445;28;20050;-44
2022/05/06 03:47:00;;;;;;;531.88;71.68;;;7.60;99.90;;;;;;5095458;28;20408;-45
2022/05/06 03:49:26;;;;;;;363.42;62.13;;;7.70;99.90;;;;;;5094609;28;20116;-44
2022/05/06 03:51:52;;;;;;;489.77;59.58;;;7.80;99.90;;;;;;5093452;28;20031;-45
2022/05/06 03:54:17;;;;;;;412.63;65.93;;;7.90;99.90;;;;;;5094987;28;20054;-45
2022/05/06 03:56:43;;;;;;;569.33;74.88;;;8.30;99.90;;;;;;5095424;28;20126;-43
2022/05/06 03:59:10;;;;;;;348.25;59.05;;;7.80;99.90;;;;;;5094397;28;20048;-44
2022/05/06 04:01:36;;;;;;;622.28;76.60;;;8.00;99.90;;;;;;5096128;27;20044;-45
2022/05/06 04:04:05;;;;;;;704.03;82.35;;;9.90;99.90;;;;;;5095095;28;20047;-42
2022/05/06 04:06:31;;;;;;;581.85;75.28;;;8.20;99.90;;;;;;5096431;28;20035;-42
2022/05/06 04:08:56;;;;;;;701.53;87.00;;;8.10;99.90;;;;;;5096218;27;20031;-43
2022/05/06 04:11:24;;;;;;;737.47;86.45;;;9.10;99.90;;;;;;5094993;28;20039;-42
2022/05/06 04:13:50;;;;;;;425.48;62.53;;;8.40;99.90;;;;;;5094549;28;20036;-42
2022/05/06 04:16:16;;;;;;;809.30;88.97;;;8.30;99.90;;;;;;5095179;28;20046;-43
2022/05/06 04:18:43;;;;;;;610.05;76.22;;;9.40;99.90;;;;;;5094126;28;20516;-43
2022/05/06 04:23:55;;;;;;;513.42;65.60;;;8.50;99.90;;;;;;5093545;28;20522;-44
2022/05/06 04:26:21;;;;;;;539.40;71.75;;;9.20;99.90;;;;;;5094632;28;20054;-44
2022/05/06 04:28:46;;;;;;;449.58;63.65;;;9.60;99.90;;;;;;5093037;28;20039;-42
2022/05/06 04:31:12;;;;;;;308.48;54.38;;;9.00;99.90;;;;;;5092844;28;20064;-41
2022/05/06 04:33:39;;;;;;;466.05;66.53;;;8.70;99.90;;;;;;5094138;28;20083;-43
2022/05/06 04:36:05;;;;;;;403.55;62.38;;;8.80;99.90;;;;;;5093489;28;20039;-47
2022/05/06 04:38:32;;;;;;;161.43;47.05;;;8.90;99.90;;;;;;5090205;28;20486;-42
2022/05/06 04:40:59;;;;;;;424.50;64.20;;;8.90;99.90;;;;;;5093663;28;20693;-43
2022/05/06 04:43:26;;;;;;;377.95;55.55;;;8.80;99.90;;;;;;5092685;28;20035;-43
2022/05/06 04:45:54;;;;;;;441.48;61.38;;;9.70;99.90;;;;;;5087939;28;20036;-45
2022/05/06 04:48:20;;;;;;;227.30;43.95;;;8.80;99.90;;;;;;5094482;28;20504;-44
2022/05/06 04:50:46;;;;;;;334.65;54.15;;;8.90;99.90;;;;;;5092215;28;20044;-42
2022/05/06 04:53:14;;;;;;;307.98;51.75;;;8.90;99.90;;;;;;5093487;28;20035;-42
2022/05/06 04:55:51;;;;;;;275.95;54.38;;;8.70;99.90;;;;;;5092658;28;20031;-42
2022/05/06 04:58:18;;;;;;;163.50;44.97;;;8.80;99.90;;;;;;5092886;28;20050;-43
2022/05/06 05:00:44;;;;;;;313.42;51.05;;;8.90;99.90;;;;;;5091890;28;20036;-46
2022/05/06 05:03:09;;;;;;;204.30;43.60;;;8.80;99.90;;;;;;5094108;28;20565;-44
2022/05/06 05:05:37;;;;;;;348.70;49.90;;;8.80;99.90;;;;;;5091939;28;20035;-43
2022/05/06 05:08:03;;;;;;;539.88;64.93;;;8.90;99.90;;;;;;5094234;28;20133;-45
2022/05/06 05:10:29;;;;;;;321.05;54.85;;;8.80;99.90;;;;;;5091975;28;20108;-46
2022/05/06 05:12:54;;;;;;;471.67;59.88;;;8.90;99.90;;;;;;5092139;28;20040;-45
2022/05/06 05:15:20;;;;;;;488.77;62.22;;;8.90;99.90;;;;;;5091436;28;20051;-42
2022/05/06 05:17:47;;;;;;;489.23;64.05;;;9.00;99.90;;;;;;5094141;28;20052;-43
2022/05/06 05:20:13;;;;;;;411.52;58.45;;;9.10;99.90;;;;;;5094525;28;20515;-45
2022/05/06 05:22:39;;;;;;;392.90;57.78;;;9.10;99.90;;;;;;5092118;28;20110;-43
2022/05/06 05:25:06;;;;;;;457.50;62.78;;;9.10;99.90;;;;;;5093627;28;20078;-43
2022/05/06 05:27:33;;;;;;;382.83;59.08;;;9.20;99.90;;;;;;5094192;28;20032;-42
2022/05/06 05:30:04;;;;;;;399.17;56.40;;;9.20;99.90;;;;;;5093332;28;20036;-43
2022/05/06 05:32:30;;;;;;;515.40;64.07;;;9.30;99.90;;;;;;5094598;28;20115;-45
2022/05/06 05:34:55;;;;;;;281.75;52.50;;;9.70;99.90;;;;;;5094347;28;20377;-44
2022/05/06 05:37:22;;;;;;;358.17;61.47;;;10.00;99.90;;;;;;5093099;28;20036;-43
2022/05/06 05:39:50;;;;;;;210.63;47.13;;;10.50;99.90;;;;;;5094151;28;21143;-49
2022/05/06 05:42:22;;;;;;;226.52;50.83;;;9.60;99.90;;;;;;5094415;28;20054;-46
2022/05/06 05:50:18;;;;;;;384.23;54.85;;;9.70;99.90;;;;;;5097282;28;20331;-45
2022/05/06 05:52:45;;;;;;;243.85;46.53;;;10.80;99.90;;;;;;5095776;28;20042;-44
2022/05/06 05:55:13;;;;;;;113.68;35.45;;;9.90;99.90;;;;;;5096598;28;20045;-43
2022/05/06 05:57:39;;;;;;;232.50;42.47;;;9.90;99.90;;;;;;5094796;28;20530;-45
2022/05/06 06:00:05;;;;;;;281.00;46.00;;;10.00;99.90;;;;;;5097795;28;20040;-43
2022/05/06 06:02:33;;;;;;;195.88;43.90;;;10.00;99.90;;;;;;5097242;28;20035;-48
2022/05/06 06:04:59;;;;;;;157.90;39.10;;;10.70;99.90;;;;;;5095735;28;20036;-44
2022/05/06 06:07:24;;;;;;;118.97;33.15;;;10.60;99.90;;;;;;5096791;28;20039;-44
2022/05/06 06:09:50;;;;;;;103.82;31.65;;;10.20;99.90;;;;;;5097511;28;20051;-49
2022/05/06 06:12:16;;;;;;;76.70;29.52;;;10.80;99.90;;;;;;5095017;28;20622;-45
2022/05/06 06:14:41;;;;;;;87.00;28.45;;;11.30;99.90;;;;;;5095753;28;20118;-46
2022/05/06 06:17:10;;;;;;;65.18;27.02;;;10.40;99.90;;;;;;5094419;28;20407;-46
2022/05/06 06:19:36;;;;;;;76.00;28.30;;;11.40;99.90;;;;;;5094389;28;20051;-48
2022/05/06 06:22:02;;;;;;;116.97;32.08;;;10.40;99.90;;;;;;5095972;28;20089;-48
2022/05/06 06:24:30;;;;;;;95.85;31.33;;;10.30;99.90;;;;;;5096167;28;20039;-45
2022/05/06 06:26:55;;;;;;;85.78;29.42;;;11.30;99.90;;;;;;5096100;28;20059;-46
2022/05/06 06:29:21;;;;;;;80.63;30.02;;;10.90;99.90;;;;;;5095168;28;20579;-46
2022/05/06 06:31:47;;;;;;;95.28;30.90;;;10.50;99.90;;;;;;5096514;28;20248;-44
2022/05/06 06:34:13;;;;;;;66.47;28.83;;;12.00;99.90;;;;;;5095707;27;20043;-46
2022/05/06 06:36:38;;;;;;;66.70;27.02;;;10.60;99.90;;;;;;5095573;28;20666;-49
2022/05/06 06:39:06;;;;;;;91.43;29.98;;;10.80;99.90;;;;;;5096240;28;20038;-44
2022/05/06 06:41:32;;;;;;;56.70;26.63;;;11.50;99.90;;;;;;5096207;28;20115;-46
2022/05/06 06:44:00;;;;;;;72.75;29.25;;;12.70;99.90;;;;;;5096340;27;20039;-48
2022/05/06 06:46:26;;;;;;;69.97;28.35;;;10.70;99.90;;;;;;5094936;28;20452;-48
2022/05/06 06:48:52;;;;;;;52.83;25.10;;;11.30;99.90;;;;;;5095692;28;20060;-46
2022/05/06 06:51:21;;;;;;;60.08;25.80;;;10.80;99.90;;;;;;5095690;28;20098;-47
2022/05/06 06:53:48;;;;;;;43.78;22.27;;;10.90;99.90;;;;;;5095661;28;21038;-44
2022/05/06 06:56:14;;;;;;;48.47;22.77;;;11.60;99.90;;;;;;5095412;28;20059;-47
2022/05/06 06:58:39;;;;;;;57.78;24.58;;;11.30;99.90;;;;;;5094825;28;20035;-45
2022/05/06 07:01:05;;;;;;;44.53;21.17;;;11.60;99.90;;;;;;5095388;28;20765;-46
2022/05/06 07:03:31;;;;;;;36.45;19.88;;;11.40;99.90;;;;;;5095531;28;20044;-45
2022/05/06 07:14:12;;;;;;;23.38;15.52;;;13.10;99.90;;;;;;5095466;28;20055;-48
2022/05/06 07:16:39;;;;;;;25.67;16.98;;;11.50;99.90;;;;;;5094499;28;20052;-48
2022/05/06 07:19:05;;;;;;;24.77;15.60;;;12.30;99.90;;;;;;5093753;28;20055;-49
2022/05/06 07:21:31;;;;;;;24.48;15.48;;;12.30;99.90;;;;;;5094919;28;20046;-46
2022/05/06 07:24:00;;;;;;;18.83;13.30;;;11.90;99.90;;;;;;5095109;28;20032;-46
2022/05/06 07:26:26;;;;;;;16.20;11.27;;;11.80;99.90;;;;;;5094890;28;20079;-43
2022/05/06 07:28:52;;;;;;;13.63;10.18;;;13.90;99.90;;;;;;5095041;28;20043;-48
2022/05/06 07:31:17;;;;;;;12.50;9.43;;;11.90;99.90;;;;;;5095063;28;20637;-48
2022/05/06 07:33:43;;;;;;;13.18;9.70;;;14.00;99.90;;;;;;5094076;28;21194;-47
2022/05/06 07:36:09;;;;;;;11.75;8.98;;;12.10;99.90;;;;;;5093904;28;20078;-47
2022/05/06 07:38:34;;;;;;;12.02;9.10;;;12.10;99.90;;;;;;5096376;28;20544;-44
2022/05/06 07:41:03;;;;;;;13.98;10.50;;;12.40;99.90;;;;;;5095186;28;20061;-46
2022/05/06 07:43:29;;;;;;;15.10;10.88;;;14.50;99.90;;;;;;5092772;28;20028;-45
2022/05/06 07:45:57;;;;;;;12.20;10.32;;;12.40;99.90;;;;;;5093491;28;20472;-45
2022/05/06 07:48:22;;;;;;;16.50;9.70;;;13.60;99.90;;;;;;5090188;28;20055;-46
2022/05/06 07:50:48;;;;;;;10.70;8.68;;;12.60;99.90;;;;;;5094121;28;20043;-43
2022/05/06 07:53:16;;;;;;;11.40;8.55;;;12.50;99.90;;;;;;5094187;28;20050;-47
2022/05/06 07:55:42;;;;;;;11.65;7.50;;;12.70;99.90;;;;;;5093679;28;20400;-46
2022/05/06 07:58:08;;;;;;;11.40;7.82;;;12.80;99.90;;;;;;5093755;28;20044;-43
2022/05/06 08:00:34;;;;;;;10.90;9.05;;;12.90;99.90;;;;;;5095000;27;20054;-44
2022/05/06 08:05:47;;;;;;;10.27;8.20;;;13.40;99.90;;;;;;5092908;28;20043;-44
2022/05/06 08:08:13;;;;;;;8.98;7.15;;;13.60;99.90;;;;;;5092989;28;20040;-43
2022/05/06 08:10:39;;;;;;;8.85;7.57;;;13.80;99.90;;;;;;5095045;28;20043;-44
2022/05/06 08:13:06;;;;;;;9.10;7.50;;;13.80;99.90;;;;;;5093989;28;20035;-44
2022/05/06 08:15:32;;;;;;;10.98;8.27;;;14.20;99.90;;;;;;5093826;28;20105;-45
2022/05/06 08:17:59;;;;;;;9.70;7.75;;;14.90;99.90;;;;;;5093609;28;20039;-45
2022/05/06 08:20:25;;;;;;;9.48;7.65;;;14.20;99.90;;;;;;5095604;28;20047;-46
2022/05/06 08:22:51;;;;;;;9.60;8.25;;;14.40;99.90;;;;;;5095076;28;20385;-43
2022/05/06 08:25:17;;;;;;;9.32;7.60;;;16.00;99.90;;;;;;5092247;28;20032;-43
2022/05/06 08:27:44;;;;;;;9.45;8.35;;;14.70;99.90;;;;;;5093452;28;20035;-44
2022/05/06 08:30:12;;;;;;;9.32;8.13;;;16.70;99.90;;;;;;5094329;28;20815;-48
2022/05/06 08:32:39;;;;;;;12.05;8.80;;;14.60;99.90;;;;;;5094914;28;20143;-48
2022/05/06 08:35:05;;;;;;;9.15;7.90;;;14.60;99.90;;;;;;5093895;28;20035;-47
2022/05/06 08:37:44;;;;;;;9.13;8.07;;;15.00;99.90;;;;;;5093309;28;20101;-49
2022/05/06 08:40:26;;;;;;;13.02;8.13;;;15.10;99.90;;;;;;5093294;28;20039;-46
2022/05/06 08:42:55;;;;;;;10.85;8.57;;;15.30;99.90;;;;;;5092541;28;20589;-45
2022/05/06 08:50:55;;;;;;;11.15;8.57;;;15.60;99.90;;;;;;5092116;28;21747;-44
2022/05/06 08:53:29;;;;;;;10.40;7.90;;;15.80;99.90;;;;;;5092372;28;20044;-45
2022/05/06 08:55:56;;;;;;;10.43;7.30;;;15.90;99.90;;;;;;5092891;28;20130;-44
2022/05/06 08:58:24;;;;;;;9.93;8.55;;;15.90;99.90;;;;;;5093774;28;21555;-44
2022/05/06 09:00:59;;;;;;;9.40;8.35;;;15.90;99.90;;;;;;5093171;28;20036;-43
2022/05/06 09:03:27;;;;;;;8.95;7.13;;;18.10;99.90;;;;;;5093447;28;20044;-43
2022/05/06 09:05:57;;;;;;;10.07;7.70;;;15.90;99.90;;;;;;5092344;28;20365;-43
2022/05/06 09:08:23;;;;;;;8.52;6.80;;;16.10;99.90;;;;;;5093067;28;20122;-45
2022/05/06 09:11:00;;;;;;;7.80;6.45;;;16.30;99.90;;;;;;5091055;28;20176;-45
2022/05/06 09:13:26;;;;;;;9.57;7.28;;;19.10;99.90;;;;;;5093310;28;20048;-45
2022/05/06 09:19:19;;;;;;;9.75;6.50;;;18.10;99.90;;;;;;5093265;28;20089;-45
2022/05/06 09:22:09;;;;;;;8.38;6.38;;;18.60;99.90;;;;;;5092677;28;20515;-45
2022/05/06 09:24:36;;;;;;;7.63;6.13;;;18.90;99.90;;;;;;5092903;28;20888;-45
2022/05/06 09:27:07;;;;;;;8.32;5.95;;;19.00;99.90;;;;;;5092552;28;20039;-45
2022/05/06 09:29:35;;;;;;;8.30;5.53;;;18.70;99.90;;;;;;5093874;28;20040;-44
2022/05/06 09:32:18;;;;;;;8.13;6.00;;;17.70;99.90;;;;;;5091792;28;20134;-44
2022/05/06 09:34:45;;;;;;;6.22;5.15;;;20.60;99.90;;;;;;5093971;28;20329;-45
2022/05/06 09:37:15;;;;;;;6.30;5.35;;;20.30;99.90;;;;;;5091830;28;20389;-48
2022/05/06 09:39:41;;;;;;;6.07;5.13;;;18.50;99.90;;;;;;5093108;28;20048;-45
2022/05/06 09:42:07;;;;;;;6.47;5.47;;;18.40;99.90;;;;;;5090569;28;20046;-46
2022/05/06 09:44:33;;;;;;;6.55;5.05;;;18.70;99.90;;;;;;5091760;28;20381;-45
2022/05/06 09:47:15;;;;;;;8.35;4.15;;;18.50;99.90;;;;;;5093528;28;20122;-47
2022/05/06 09:49:43;;;;;;;5.53;4.60;;;18.70;99.90;;;;;;5092233;28;20071;-46
2022/05/06 09:52:13;;;;;;;5.80;4.10;;;18.90;99.90;;;;;;5092653;28;20040;-45
2022/05/06 09:54:43;;;;;;;6.75;4.40;;;19.10;99.90;;;;;;5092127;28;20735;-48
2022/05/06 09:57:13;;;;;;;8.75;4.25;;;19.20;99.90;;;;;;5091629;28;20776;-46
2022/05/06 09:59:39;;;;;;;6.70;4.00;;;19.60;99.90;;;;;;5091892;28;20088;-45
2022/05/06 10:02:07;;;;;;;4.93;3.20;;;19.40;99.90;;;;;;5092300;28;20225;-46
2022/05/06 10:04:34;;;;;;;5.07;3.30;;;19.40;99.90;;;;;;5092027;28;20823;-46
2022/05/06 10:07:00;;;;;;;4.95;3.20;;;19.40;99.90;;;;;;5090623;28;20047;-44
2022/05/06 10:09:29;;;;;;;27.08;16.95;;;19.70;99.90;;;;;;5093083;28;20043;-46
2022/05/06 10:11:58;;;;;;;5.72;3.85;;;21.90;99.90;;;;;;5091440;28;20043;-46
2022/05/06 10:14:24;;;;;;;5.32;3.55;;;19.70;99.90;;;;;;5091830;28;20082;-49
2022/05/06 10:16:50;;;;;;;1102.57;785.20;;;20.00;99.90;;;;;;5092018;28;20034;-45
2022/05/06 10:19:44;;;;;;;889.35;760.50;;;20.40;99.90;;;;;;5092064;28;20048;-45
2022/05/06 10:22:10;;;;;;;1159.15;786.97;;;20.80;99.90;;;;;;5091108;28;20052;-44
2022/05/06 10:24:49;;;;;;;1360.32;933.75;;;20.40;99.90;;;;;;5092764;28;20386;-46
2022/05/06 10:33:18;;;;;;;216.88;168.95;;;20.90;99.90;;;;;;5012447;28;20055;-44
2022/05/06 10:35:47;;;;;;;739.50;595.60;;;21.70;99.90;;;;;;5013454;28;20046;-46
2022/05/06 10:38:21;;;;;;;156.88;117.10;;;21.20;99.90;;;;;;5012950;28;20061;-48
2022/05/06 10:41:11;;;;;;;6.32;2.72;;;21.50;99.90;;;;;;5014219;28;20506;-49
2022/05/06 10:43:39;;;;;;;1126.15;858.70;;;21.40;99.90;;;;;;5013667;28;20045;-46
2022/05/06 10:46:07;;;;;;;1083.72;776.72;;;21.40;99.90;;;;;;5012942;28;20037;-45
2022/05/06 10:48:33;;;;;;;1812.93;950.65;;;21.10;99.90;;;;;;5011238;28;20398;-44
2022/05/06 10:51:24;;;;;;;458.80;425.35;;;21.20;99.90;;;;;;5011824;28;20294;-45
2022/05/06 10:53:51;;;;;;;306.73;287.48;;;21.00;99.90;;;;;;5011986;28;20049;-47
2022/05/06 10:56:17;;;;;;;552.47;511.13;;;21.10;99.90;;;;;;5013287;28;20033;-45
2022/05/06 10:58:43;;;;;;;519.38;481.65;;;21.00;99.90;;;;;;5013299;28;20041;-46
2022/05/06 11:01:16;;;;;;;730.50;666.25;;;21.30;99.90;;;;;;5011783;28;20112;-44
2022/05/06 11:03:54;;;;;;;527.75;485.55;;;21.40;99.90;;;;;;5010572;28;20048;-45
2022/05/06 11:06:24;;;;;;;845.83;762.20;;;21.60;99.90;;;;;;5019775;28;20045;-45
2022/05/06 11:08:50;;;;;;;432.65;401.15;;;21.80;99.90;;;;;;5095905;28;20036;-47
2022/05/06 11:11:19;;;;;;;399.58;370.60;;;23.20;99.90;;;;;;5096576;28;21086;-47
2022/05/06 11:13:47;;;;;;;573.33;520.40;;;23.60;99.90;;;;;;5095549;28;20576;-45
2022/05/06 11:16:14;;;;;;;930.58;832.00;;;21.30;99.90;;;;;;5093853;28;20813;-45
2022/05/06 11:18:48;;;;;;;937.25;805.15;;;20.90;99.90;;;;;;5095339;28;20039;-48
2022/05/06 11:21:24;;;;;;;1011.13;813.95;;;21.00;99.90;;;;;;5094376;28;20047;-49
2022/05/06 11:23:50;;;;;;;1440.70;876.20;;;22.00;99.90;;;;;;5094782;28;20816;-45
2022/05/06 11:26:27;;;;;;;1302.97;631.13;;;21.20;99.90;;;;;;5094789;28;20043;-49
2022/05/06 11:29:03;;;;;;;1272.65;649.85;;;21.40;99.90;;;;;;5093416;28;20223;-46
2022/05/06 11:31:32;;;;;;;1493.20;741.08;;;21.70;99.90;;;;;;5094278;28;20062;-49
2022/05/06 11:34:05;;;;;;;1193.78;909.65;;;22.70;99.90;;;;;;5093820;28;20158;-45
2022/05/06 11:36:31;;;;;;;1850.28;791.55;;;21.70;99.90;;;;;;5095585;28;20044;-45
2022/05/06 11:38:56;;;;;;;670.28;250.07;;;23.90;99.90;;;;;;5093476;28;20088;-48
2022/05/06 11:41:24;;;;;;;1105.90;469.80;;;22.30;99.90;;;;;;5095138;28;20047;-49
2022/05/06 11:44:02;;;;;;;1617.30;626.10;;;22.10;99.90;;;;;;5094588;27;20924;-48
2022/05/06 11:49:24;;;;;;;1026.70;476.13;;;22.00;99.90;;;;;;5095006;28;20136;-44
2022/05/06 11:51:50;;;;;;;1059.78;417.38;;;22.00;99.90;;;;;;5095499;28;20050;-44
2022/05/06 11:54:18;;;;;;;171.60;81.60;;;21.90;99.90;;;;;;5094734;28;20054;-46
2022/05/06 11:56:44;;;;;;;1078.70;464.50;;;23.30;99.90;;;;;;5094965;28;20063;-48
2022/05/06 11:59:11;;;;;;;599.25;226.07;;;21.50;99.90;;;;;;5094584;28;20665;-47
2022/05/06 12:01:38;;;;;;;22.02;16.40;;;21.20;99.90;;;;;;5095102;28;20028;-46
2022/05/06 12:04:09;;;;;;;4.47;1.95;;;21.40;99.90;;;;;;5094519;27;20044;-50
2022/05/06 12:06:44;;;;;;;4.75;2.58;;;21.50;99.90;;;;;;5095512;28;20046;-50
2022/05/06 12:09:17;;;;;;;4.93;2.47;;;21.50;99.90;;;;;;5092141;28;20039;-47
2022/05/06 12:11:45;;;;;;;5.03;2.80;;;21.90;99.90;;;;;;5093424;28;20494;-51
2022/05/06 12:14:18;;;;;;;7.68;3.35;;;22.10;99.90;;;;;;5091213;28;20382;-48
2022/05/06 12:16:58;;;;;;;5.43;3.25;;;21.90;99.90;;;;;;5093521;28;20628;-49
2022/05/06 12:19:33;;;;;;;6.85;3.55;;;21.80;99.90;;;;;;5093170;28;20733;-47
2022/05/06 12:22:04;;;;;;;7.47;3.40;;;21.70;99.90;;;;;;5093862;28;20136;-46
2022/05/06 12:24:38;;;;;;;;;;;21.40;99.90;;;;;;5094981;28;20042;-49
2022/05/06 12:27:04;;;;;;;6.22;3.45;;;20.90;99.90;;;;;;5094608;28;19923;-49
2022/05/06 12:29:36;;;;;;;5.57;3.33;;;20.60;99.90;;;;;;5093698;28;20043;-48
2022/05/06 12:32:06;;;;;;;6.35;4.28;;;20.40;99.90;;;;;;5094340;28;20048;-47
2022/05/06 12:34:32;;;;;;;7.63;4.30;;;20.60;99.90;;;;;;5093737;28;20118;-45
2022/05/06 12:37:12;;;;;;;5.57;3.80;;;20.50;99.90;;;;;;5091829;28;20170;-45
2022/05/06 12:39:41;;;;;;;6.30;3.58;;;20.70;99.90;;;;;;5094546;28;20055;-46
2022/05/06 12:42:26;;;;;;;5.68;3.47;;;20.40;99.90;;;;;;5094149;28;20416;-49
2022/05/06 12:44:54;;;;;;;6.13;3.60;;;20.50;99.90;;;;;;5093131;28;20117;-47
2022/05/06 12:50:09;;;;;;;7.93;4.03;;;20.60;99.90;;;;;;5092288;28;20054;-47
2022/05/06 12:52:36;;;;;;;7.05;3.80;;;20.40;99.90;;;;;;5092887;28;20143;-47
2022/05/06 12:55:06;;;;;;;5.88;3.72;;;20.40;99.90;;;;;;5092445;28;20043;-44
2022/05/06 12:57:32;;;;;;;7.20;3.88;;;20.90;99.90;;;;;;5091007;28;20086;-46
2022/05/06 12:59:58;;;;;;;6.95;3.25;;;22.00;99.90;;;;;;5093378;28;20040;-49
2022/05/06 13:02:23;;;;;;;6.47;3.47;;;21.30;99.90;;;;;;5093192;28;20049;-45
2022/05/06 13:04:51;;;;;;;5.25;3.53;;;21.40;99.90;;;;;;5092903;28;20146;-44
2022/05/06 13:07:16;;;;;;;6.65;3.28;;;21.40;99.90;;;;;;5092562;28;20610;-44
2022/05/06 13:09:42;;;;;;;7.35;4.45;;;21.40;99.90;;;;;;5094568;28;20043;-44
2022/05/06 13:12:12;;;;;;;5.45;4.00;;;21.30;99.90;;;;;;5093251;28;20040;-45
2022/05/06 13:14:37;;;;;;;6.75;4.05;;;21.00;99.90;;;;;;5093118;28;20452;-43
2022/05/06 13:17:04;;;;;;;6.32;4.00;;;20.80;99.90;;;;;;5092062;28;20044;-45
2022/05/06 13:19:32;;;;;;;7.22;4.00;;;20.30;99.90;;;;;;5093915;28;20069;-45
2022/05/06 13:21:58;;;;;;;6.05;3.97;;;20.30;99.90;;;;;;5092961;28;20532;-50
2022/05/06 13:24:23;;;;;;;7.07;4.10;;;20.40;99.90;;;;;;5094696;28;20782;-46